sensor_id;sensor_type;location;lat;lon;timestamp;pressure;altitude;pressure_sealevel;temperature;humidity
4814;BME280;15375;48.540;9.268;2023-12-07T00:00:22;97622.84;;;0.97;100.00
4814;BME280;15375;48.540;9.268;2023-12-07T00:02:47;97659.66;;;1.12;100.00
4814;BME280;15375;48.540;9.268;2023-12-07T00:05:13;97651.00;;;1.03;100.00
4814;BME280;15375;48.540;9.268;2023-12-07T00:07:38;97640.34;;;1.07;100.00
4814;BME280;15375;48.540;9.268;2023-12-07T00:10:04;97617.38;;;0.94;100.00
4814;BME280;15375;48.540;9.268;2023-12-07T00:12:29;97639.50;;;1.03;100.00
4814;BME280;15375;48.540;9.268;2023-12-07T00:14:54;97623.63;;;0.98;100.00
4814;BME280;15375;48.540;9.268;2023-12-07T00:17:20;97632.38;;;1.10;100.00
4814;BME280;15375;48.540;9.268;2023-12-07T00:19:45;97644.50;;;1.20;100.00
4814;BME280;15375;48.540;9.268;2023-12-07T00:22:10;97638.00;;;1.05;100.00
4814;BME280;15375;48.540;9.268;2023-12-07T00:24:36;97664.50;;;1.22;100.00
4814;BME280;15375;48.540;9.268;2023-12-07T00:27:01;97623.97;;;0.96;100.00
4814;BME280;15375;48.540;9.268;2023-12-07T00:29:26;97608.91;;;0.92;100.00
4814;BME280;15375;48.540;9.268;2023-12-07T00:31:52;97629.59;;;1.07;100.00
4814;BME280;15375;48.540;9.268;2023-12-07T00:34:17;97621.03;;;1.01;100.00
4814;BME280;15375;48.540;9.268;2023-12-07T00:36:43;97664.78;;;1.33;100.00
4814;BME280;15375;48.540;9.268;2023-12-07T00:39:09;97662.56;;;1.39;100.00
4814;BME280;15375;48.540;9.268;2023-12-07T00:41:34;97647.63;;;1.22;100.00
4814;BME280;15375;48.540;9.268;2023-12-07T00:43:59;97649.50;;;1.21;100.00
4814;BME280;15375;48.540;9.268;2023-12-07T00:46:25;97652.81;;;1.15;100.00
4814;BME280;15375;48.540;9.268;2023-12-07T00:48:50;97627.88;;;0.99;100.00
4814;BME280;15375;48.540;9.268;2023-12-07T00:51:15;97652.91;;;1.03;100.00
4814;BME280;15375;48.540;9.268;2023-12-07T00:53:41;97674.31;;;1.15;100.00
4814;BME280;15375;48.540;9.268;2023-12-07T00:56:07;97657.50;;;1.02;100.00
4814;BME280;15375;48.540;9.268;2023-12-07T00:58:32;97651.00;;;1.03;100.00
4814;BME280;15375;48.540;9.268;2023-12-07T01:00:58;97637.13;;;1.01;100.00
4814;BME280;15375;48.540;9.268;2023-12-07T01:03:23;97576.25;;;0.58;100.00
4814;BME280;15375;48.540;9.268;2023-12-07T01:05:48;97638.44;;;0.92;100.00
4814;BME280;15375;48.540;9.268;2023-12-07T01:08:14;97663.47;;;1.11;100.00
4814;BME280;15375;48.540;9.268;2023-12-07T01:10:39;97684.53;;;1.25;100.00
4814;BME280;15375;48.540;9.268;2023-12-07T01:13:05;97672.22;;;1.24;100.00
4814;BME280;15375;48.540;9.268;2023-12-07T01:15:30;97667.63;;;1.24;100.00
4814;BME280;15375;48.540;9.268;2023-12-07T01:17:56;97675.84;;;1.16;100.00
4814;BME280;15375;48.540;9.268;2023-12-07T01:20:21;97658.34;;;1.06;100.00
4814;BME280;15375;48.540;9.268;2023-12-07T01:22:47;97682.81;;;1.17;100.00
4814;BME280;15375;48.540;9.268;2023-12-07T01:25:12;97671.63;;;1.15;100.00
4814;BME280;15375;48.540;9.268;2023-12-07T01:27:42;97690.75;;;1.29;100.00
4814;BME280;15375;48.540;9.268;2023-12-07T01:30:07;97689.91;;;1.25;100.00
4814;BME280;15375;48.540;9.268;2023-12-07T01:32:33;97689.53;;;1.26;100.00
4814;BME280;15375;48.540;9.268;2023-12-07T01:34:59;97693.81;;;1.27;100.00
4814;BME280;15375;48.540;9.268;2023-12-07T01:37:24;97633.84;;;0.92;100.00
4814;BME280;15375;48.540;9.268;2023-12-07T01:39:50;97624.84;;;0.85;100.00
4814;BME280;15375;48.540;9.268;2023-12-07T01:42:15;97675.00;;;1.12;100.00
4814;BME280;15375;48.540;9.268;2023-12-07T01:44:40;97666.84;;;1.08;100.00
4814;BME280;15375;48.540;9.268;2023-12-07T01:47:06;97688.06;;;1.13;100.00
4814;BME280;15375;48.540;9.268;2023-12-07T01:49:34;97668.91;;;0.84;100.00
4814;BME280;15375;48.540;9.268;2023-12-07T01:51:59;97689.63;;;0.83;100.00
4814;BME280;15375;48.540;9.268;2023-12-07T01:54:25;97685.00;;;0.68;100.00
4814;BME280;15375;48.540;9.268;2023-12-07T01:56:51;97671.72;;;0.44;100.00
4814;BME280;15375;48.540;9.268;2023-12-07T01:59:17;97656.31;;;0.13;100.00
4814;BME280;15375;48.540;9.268;2023-12-07T02:01:43;97693.19;;;0.16;100.00
4814;BME280;15375;48.540;9.268;2023-12-07T02:04:09;97695.66;;;0.09;100.00
4814;BME280;15375;48.540;9.268;2023-12-07T02:06:35;97706.13;;;0.26;100.00
4814;BME280;15375;48.540;9.268;2023-12-07T02:09:00;97725.97;;;0.37;100.00
4814;BME280;15375;48.540;9.268;2023-12-07T02:11:26;97686.28;;;0.03;100.00
4814;BME280;15375;48.540;9.268;2023-12-07T02:13:52;97704.38;;;0.06;100.00
4814;BME280;15375;48.540;9.268;2023-12-07T02:16:51;97726.03;;;0.13;100.00
4814;BME280;15375;48.540;9.268;2023-12-07T02:19:47;97732.88;;;0.11;100.00
4814;BME280;15375;48.540;9.268;2023-12-07T02:22:22;97729.75;;;0.09;100.00
4814;BME280;15375;48.540;9.268;2023-12-07T02:25:06;97734.00;;;0.10;100.00
4814;BME280;15375;48.540;9.268;2023-12-07T02:27:43;97727.41;;;0.07;100.00
4814;BME280;15375;48.540;9.268;2023-12-07T02:30:11;97732.00;;;0.07;100.00
4814;BME280;15375;48.540;9.268;2023-12-07T02:32:37;97712.47;;;-0.06;100.00
4814;BME280;15375;48.540;9.268;2023-12-07T02:35:04;97720.50;;;-0.06;100.00
4814;BME280;15375;48.540;9.268;2023-12-07T02:37:35;97721.38;;;-0.02;100.00
4814;BME280;15375;48.540;9.268;2023-12-07T02:40:03;97704.44;;;-0.06;100.00
4814;BME280;15375;48.540;9.268;2023-12-07T02:42:31;97738.34;;;0.14;100.00
4814;BME280;15375;48.540;9.268;2023-12-07T02:44:58;97700.19;;;-0.07;100.00
4814;BME280;15375;48.540;9.268;2023-12-07T02:47:24;97739.22;;;0.18;100.00
4814;BME280;15375;48.540;9.268;2023-12-07T02:49:50;97720.00;;;0.16;100.00
4814;BME280;15375;48.540;9.268;2023-12-07T02:52:15;97701.28;;;0.04;100.00
4814;BME280;15375;48.540;9.268;2023-12-07T02:54:40;97712.41;;;0.18;100.00
4814;BME280;15375;48.540;9.268;2023-12-07T02:57:06;97729.91;;;0.28;100.00
4814;BME280;15375;48.540;9.268;2023-12-07T02:59:31;97698.22;;;-0.34;100.00
4814;BME280;15375;48.540;9.268;2023-12-07T03:01:56;97707.47;;;-0.32;100.00
4814;BME280;15375;48.540;9.268;2023-12-07T03:04:22;97720.78;;;-0.23;100.00
4814;BME280;15375;48.540;9.268;2023-12-07T03:06:47;97700.66;;;-0.29;100.00
4814;BME280;15375;48.540;9.268;2023-12-07T03:09:12;97703.94;;;-0.36;100.00
4814;BME280;15375;48.540;9.268;2023-12-07T03:11:38;97726.44;;;-0.25;100.00
4814;BME280;15375;48.540;9.268;2023-12-07T03:14:03;97694.22;;;-0.52;100.00
4814;BME280;15375;48.540;9.268;2023-12-07T03:16:29;97695.78;;;-0.51;100.00
4814;BME280;15375;48.540;9.268;2023-12-07T03:18:54;97689.09;;;-0.57;100.00
4814;BME280;15375;48.540;9.268;2023-12-07T03:21:19;97662.97;;;-0.73;100.00
4814;BME280;15375;48.540;9.268;2023-12-07T03:23:45;97721.56;;;-0.35;100.00
4814;BME280;15375;48.540;9.268;2023-12-07T03:26:10;97702.59;;;-0.54;100.00
4814;BME280;15375;48.540;9.268;2023-12-07T03:28:35;97721.03;;;-0.40;100.00
4814;BME280;15375;48.540;9.268;2023-12-07T03:31:04;97720.03;;;-0.48;100.00
4814;BME280;15375;48.540;9.268;2023-12-07T03:33:29;97685.97;;;-0.72;100.00
4814;BME280;15375;48.540;9.268;2023-12-07T03:35:54;97693.78;;;-0.67;100.00
4814;BME280;15375;48.540;9.268;2023-12-07T03:38:20;97688.22;;;-0.74;100.00
4814;BME280;15375;48.540;9.268;2023-12-07T03:40:45;97721.47;;;-0.50;100.00
4814;BME280;15375;48.540;9.268;2023-12-07T03:43:13;97716.44;;;-0.52;100.00
4814;BME280;15375;48.540;9.268;2023-12-07T03:45:38;97703.16;;;-0.60;100.00
4814;BME280;15375;48.540;9.268;2023-12-07T03:48:04;97698.56;;;-0.72;100.00
4814;BME280;15375;48.540;9.268;2023-12-07T03:50:29;97702.25;;;-0.65;100.00
4814;BME280;15375;48.540;9.268;2023-12-07T03:52:55;97708.41;;;-0.64;100.00
4814;BME280;15375;48.540;9.268;2023-12-07T03:55:20;97700.03;;;-0.63;100.00
4814;BME280;15375;48.540;9.268;2023-12-07T03:57:46;97729.94;;;-0.48;100.00
4814;BME280;15375;48.540;9.268;2023-12-07T04:00:11;97716.09;;;-0.63;100.00
4814;BME280;15375;48.540;9.268;2023-12-07T04:02:37;97716.00;;;-0.66;100.00
4814;BME280;15375;48.540;9.268;2023-12-07T04:05:02;97728.16;;;-0.69;100.00
4814;BME280;15375;48.540;9.268;2023-12-07T04:07:28;97743.00;;;-0.59;100.00
4814;BME280;15375;48.540;9.268;2023-12-07T04:09:57;97714.66;;;-0.84;100.00
4814;BME280;15375;48.540;9.268;2023-12-07T04:12:23;97739.75;;;-0.65;100.00
4814;BME280;15375;48.540;9.268;2023-12-07T04:14:50;97737.75;;;-0.68;100.00
4814;BME280;15375;48.540;9.268;2023-12-07T04:17:15;97660.09;;;-1.16;100.00
4814;BME280;15375;48.540;9.268;2023-12-07T04:19:41;97709.84;;;-0.79;100.00
4814;BME280;15375;48.540;9.268;2023-12-07T04:22:06;97726.50;;;-0.73;100.00
4814;BME280;15375;48.540;9.268;2023-12-07T04:24:32;97709.72;;;-0.82;100.00
4814;BME280;15375;48.540;9.268;2023-12-07T04:26:57;97682.50;;;-0.96;100.00
4814;BME280;15375;48.540;9.268;2023-12-07T04:29:22;97694.00;;;-0.84;100.00
4814;BME280;15375;48.540;9.268;2023-12-07T04:31:48;97726.06;;;-0.63;100.00
4814;BME280;15375;48.540;9.268;2023-12-07T04:34:13;97753.41;;;-0.45;100.00
4814;BME280;15375;48.540;9.268;2023-12-07T04:36:38;97742.44;;;-0.52;100.00
4814;BME280;15375;48.540;9.268;2023-12-07T04:39:04;97750.25;;;-0.47;100.00
4814;BME280;15375;48.540;9.268;2023-12-07T04:41:29;97739.31;;;-0.54;100.00
4814;BME280;15375;48.540;9.268;2023-12-07T04:43:54;97722.16;;;-0.66;100.00
4814;BME280;15375;48.540;9.268;2023-12-07T04:46:20;97762.09;;;-0.48;100.00
4814;BME280;15375;48.540;9.268;2023-12-07T04:48:45;97726.59;;;-0.70;100.00
4814;BME280;15375;48.540;9.268;2023-12-07T04:51:11;97743.56;;;-0.53;100.00
4814;BME280;15375;48.540;9.268;2023-12-07T04:53:36;97747.34;;;-0.54;100.00
4814;BME280;15375;48.540;9.268;2023-12-07T04:56:01;97657.16;;;-1.23;100.00
4814;BME280;15375;48.540;9.268;2023-12-07T04:58:27;97713.06;;;-0.85;100.00
4814;BME280;15375;48.540;9.268;2023-12-07T05:00:52;97717.66;;;-0.74;100.00
4814;BME280;15375;48.540;9.268;2023-12-07T05:03:18;97642.66;;;-1.34;100.00
4814;BME280;15375;48.540;9.268;2023-12-07T05:05:43;97753.38;;;-0.57;100.00
4814;BME280;15375;48.540;9.268;2023-12-07T05:08:08;97744.22;;;-0.69;100.00
4814;BME280;15375;48.540;9.268;2023-12-07T05:10:34;97699.56;;;-1.01;100.00
4814;BME280;15375;48.540;9.268;2023-12-07T05:13:01;97739.53;;;-0.72;100.00
4814;BME280;15375;48.540;9.268;2023-12-07T05:15:27;97749.03;;;-0.74;100.00
4814;BME280;15375;48.540;9.268;2023-12-07T05:17:52;97705.38;;;-1.11;100.00
4814;BME280;15375;48.540;9.268;2023-12-07T05:20:18;97752.69;;;-0.91;100.00
4814;BME280;15375;48.540;9.268;2023-12-07T05:22:47;97661.00;;;-1.57;100.00
4814;BME280;15375;48.540;9.268;2023-12-07T05:25:12;97718.03;;;-1.20;100.00
4814;BME280;15375;48.540;9.268;2023-12-07T05:27:38;97733.66;;;-1.10;100.00
4814;BME280;15375;48.540;9.268;2023-12-07T05:30:03;97715.81;;;-1.18;100.00
4814;BME280;15375;48.540;9.268;2023-12-07T05:32:29;97743.84;;;-1.03;100.00
4814;BME280;15375;48.540;9.268;2023-12-07T05:34:54;97750.88;;;-1.11;100.00
4814;BME280;15375;48.540;9.268;2023-12-07T05:37:19;97717.66;;;-1.31;100.00
4814;BME280;15375;48.540;9.268;2023-12-07T05:39:45;97764.47;;;-1.04;100.00
4814;BME280;15375;48.540;9.268;2023-12-07T05:42:10;97742.22;;;-1.28;100.00
4814;BME280;15375;48.540;9.268;2023-12-07T05:44:36;97770.69;;;-1.12;100.00
4814;BME280;15375;48.540;9.268;2023-12-07T05:47:01;97738.06;;;-1.38;100.00
4814;BME280;15375;48.540;9.268;2023-12-07T05:49:26;97739.50;;;-1.41;100.00
4814;BME280;15375;48.540;9.268;2023-12-07T05:51:52;97755.44;;;-1.44;100.00
4814;BME280;15375;48.540;9.268;2023-12-07T05:54:18;97740.69;;;-1.50;100.00
4814;BME280;15375;48.540;9.268;2023-12-07T05:56:45;97697.28;;;-1.88;100.00
4814;BME280;15375;48.540;9.268;2023-12-07T05:59:11;97774.84;;;-1.35;100.00
4814;BME280;15375;48.540;9.268;2023-12-07T06:01:37;97755.00;;;-1.46;100.00
4814;BME280;15375;48.540;9.268;2023-12-07T06:04:02;97757.78;;;-1.43;100.00
4814;BME280;15375;48.540;9.268;2023-12-07T06:06:28;97722.47;;;-1.69;100.00
4814;BME280;15375;48.540;9.268;2023-12-07T06:08:53;97766.38;;;-1.37;100.00
4814;BME280;15375;48.540;9.268;2023-12-07T06:11:19;97764.81;;;-1.38;100.00
4814;BME280;15375;48.540;9.268;2023-12-07T06:13:47;97731.97;;;-1.59;100.00
4814;BME280;15375;48.540;9.268;2023-12-07T06:16:13;97725.03;;;-1.60;100.00
4814;BME280;15375;48.540;9.268;2023-12-07T06:18:39;97744.72;;;-1.44;100.00
4814;BME280;15375;48.540;9.268;2023-12-07T06:21:04;97732.41;;;-1.57;100.00
4814;BME280;15375;48.540;9.268;2023-12-07T06:23:29;97707.72;;;-1.75;100.00
4814;BME280;15375;48.540;9.268;2023-12-07T06:25:55;97717.47;;;-1.58;100.00
4814;BME280;15375;48.540;9.268;2023-12-07T06:28:20;97725.28;;;-1.53;100.00
4814;BME280;15375;48.540;9.268;2023-12-07T06:30:45;97724.56;;;-1.74;100.00
4814;BME280;15375;48.540;9.268;2023-12-07T06:33:11;97722.88;;;-1.79;100.00
4814;BME280;15375;48.540;9.268;2023-12-07T06:35:36;97729.44;;;-1.76;100.00
4814;BME280;15375;48.540;9.268;2023-12-07T06:38:02;97718.38;;;-1.87;100.00
4814;BME280;15375;48.540;9.268;2023-12-07T06:40:27;97739.47;;;-1.73;100.00
4814;BME280;15375;48.540;9.268;2023-12-07T06:42:52;97759.03;;;-1.61;100.00
4814;BME280;15375;48.540;9.268;2023-12-07T06:45:18;97723.38;;;-1.85;100.00
4814;BME280;15375;48.540;9.268;2023-12-07T06:47:43;97729.06;;;-1.87;100.00
4814;BME280;15375;48.540;9.268;2023-12-07T06:50:09;97765.63;;;-1.58;100.00
4814;BME280;15375;48.540;9.268;2023-12-07T06:52:35;97723.38;;;-1.85;100.00
4814;BME280;15375;48.540;9.268;2023-12-07T06:55:01;97711.78;;;-1.89;100.00
4814;BME280;15375;48.540;9.268;2023-12-07T06:57:26;97738.56;;;-1.77;100.00
4814;BME280;15375;48.540;9.268;2023-12-07T06:59:53;97762.94;;;-1.58;100.00
4814;BME280;15375;48.540;9.268;2023-12-07T07:02:18;97757.03;;;-1.64;100.00
4814;BME280;15375;48.540;9.268;2023-12-07T07:04:43;97744.81;;;-1.73;100.00
4814;BME280;15375;48.540;9.268;2023-12-07T07:07:09;97721.25;;;-1.92;100.00
4814;BME280;15375;48.540;9.268;2023-12-07T07:09:34;97708.00;;;-2.09;100.00
4814;BME280;15375;48.540;9.268;2023-12-07T07:12:00;97744.25;;;-2.00;100.00
4814;BME280;15375;48.540;9.268;2023-12-07T07:14:25;97721.22;;;-2.13;100.00
4814;BME280;15375;48.540;9.268;2023-12-07T07:16:51;97776.84;;;-1.85;100.00
4814;BME280;15375;48.540;9.268;2023-12-07T07:19:17;97772.63;;;-1.86;100.00
4814;BME280;15375;48.540;9.268;2023-12-07T07:21:43;97717.84;;;-2.22;100.00
4814;BME280;15375;48.540;9.268;2023-12-07T07:24:09;97738.16;;;-2.09;100.00
4814;BME280;15375;48.540;9.268;2023-12-07T07:26:34;97757.53;;;-1.91;100.00
4814;BME280;15375;48.540;9.268;2023-12-07T07:29:00;97735.78;;;-2.02;100.00
4814;BME280;15375;48.540;9.268;2023-12-07T07:31:25;97697.13;;;-2.25;100.00
4814;BME280;15375;48.540;9.268;2023-12-07T07:33:50;97732.78;;;-2.00;100.00
4814;BME280;15375;48.540;9.268;2023-12-07T07:36:16;97743.97;;;-1.86;100.00
4814;BME280;15375;48.540;9.268;2023-12-07T07:38:42;97619.78;;;-2.63;100.00
4814;BME280;15375;48.540;9.268;2023-12-07T07:41:08;97749.06;;;-1.72;100.00
4814;BME280;15375;48.540;9.268;2023-12-07T07:43:33;97754.91;;;-1.58;100.00
4814;BME280;15375;48.540;9.268;2023-12-07T07:46:08;97707.69;;;-1.54;100.00
4814;BME280;15375;48.540;9.268;2023-12-07T07:48:34;97779.19;;;-0.98;100.00
4814;BME280;15375;48.540;9.268;2023-12-07T07:50:59;97768.84;;;-0.87;100.00
4814;BME280;15375;48.540;9.268;2023-12-07T07:53:24;97706.69;;;-1.17;100.00
4814;BME280;15375;48.540;9.268;2023-12-07T07:55:50;97762.19;;;-0.81;100.00
4814;BME280;15375;48.540;9.268;2023-12-07T07:58:15;97775.22;;;-0.92;100.00
4814;BME280;15375;48.540;9.268;2023-12-07T08:00:40;97745.50;;;-1.11;100.00
4814;BME280;15375;48.540;9.268;2023-12-07T08:03:06;97700.59;;;-1.38;100.00
4814;BME280;15375;48.540;9.268;2023-12-07T08:05:31;97689.00;;;-1.42;100.00
4814;BME280;15375;48.540;9.268;2023-12-07T08:07:58;97667.84;;;-1.68;100.00
4814;BME280;15375;48.540;9.268;2023-12-07T08:10:23;97744.28;;;-1.13;100.00
4814;BME280;15375;48.540;9.268;2023-12-07T08:12:49;97666.38;;;-1.77;100.00
4814;BME280;15375;48.540;9.268;2023-12-07T08:15:14;97702.00;;;-1.53;100.00
4814;BME280;15375;48.540;9.268;2023-12-07T08:17:40;97761.22;;;-1.09;100.00
4814;BME280;15375;48.540;9.268;2023-12-07T08:20:09;97772.97;;;-0.90;100.00
4814;BME280;15375;48.540;9.268;2023-12-07T08:22:40;97761.03;;;-0.92;100.00
4814;BME280;15375;48.540;9.268;2023-12-07T08:25:06;97779.94;;;-0.77;100.00
4814;BME280;15375;48.540;9.268;2023-12-07T08:27:33;97775.59;;;-0.69;100.00
4814;BME280;15375;48.540;9.268;2023-12-07T08:29:59;97765.88;;;-0.61;100.00
4814;BME280;15375;48.540;9.268;2023-12-07T08:32:24;97751.13;;;-0.68;100.00
4814;BME280;15375;48.540;9.268;2023-12-07T08:34:51;97736.63;;;-0.67;100.00
4814;BME280;15375;48.540;9.268;2023-12-07T08:37:17;97751.25;;;-0.52;100.00
4814;BME280;15375;48.540;9.268;2023-12-07T08:39:42;97746.69;;;-0.39;100.00
4814;BME280;15375;48.540;9.268;2023-12-07T08:42:08;97764.75;;;0.00;100.00
4814;BME280;15375;48.540;9.268;2023-12-07T08:44:33;97745.03;;;0.20;100.00
4814;BME280;15375;48.540;9.268;2023-12-07T08:46:59;97727.88;;;0.37;100.00
4814;BME280;15375;48.540;9.268;2023-12-07T08:49:24;97748.91;;;0.62;100.00
4814;BME280;15375;48.540;9.268;2023-12-07T08:51:52;97741.34;;;0.80;100.00
4814;BME280;15375;48.540;9.268;2023-12-07T08:54:18;97733.91;;;1.05;100.00
4814;BME280;15375;48.540;9.268;2023-12-07T08:56:44;97751.34;;;1.42;100.00
4814;BME280;15375;48.540;9.268;2023-12-07T08:59:10;97738.50;;;1.67;100.00
4814;BME280;15375;48.540;9.268;2023-12-07T09:01:36;97728.94;;;1.69;100.00
4814;BME280;15375;48.540;9.268;2023-12-07T09:04:01;97692.28;;;1.61;100.00
4814;BME280;15375;48.540;9.268;2023-12-07T09:06:27;97700.69;;;1.60;100.00
4814;BME280;15375;48.540;9.268;2023-12-07T09:08:52;97707.88;;;1.71;100.00
4814;BME280;15375;48.540;9.268;2023-12-07T09:11:18;97705.50;;;1.85;100.00
4814;BME280;15375;48.540;9.268;2023-12-07T09:13:43;97627.00;;;1.61;100.00
4814;BME280;15375;48.540;9.268;2023-12-07T09:16:09;97679.78;;;2.04;100.00
4814;BME280;15375;48.540;9.268;2023-12-07T09:18:34;97719.78;;;2.43;100.00
4814;BME280;15375;48.540;9.268;2023-12-07T09:21:02;97695.56;;;2.24;100.00
4814;BME280;15375;48.540;9.268;2023-12-07T09:23:28;97676.91;;;2.73;100.00
4814;BME280;15375;48.540;9.268;2023-12-07T09:25:53;97665.53;;;3.29;100.00
4814;BME280;15375;48.540;9.268;2023-12-07T09:28:19;97685.16;;;3.52;97.40
4814;BME280;15375;48.540;9.268;2023-12-07T09:30:44;97588.59;;;3.08;92.48
4814;BME280;15375;48.540;9.268;2023-12-07T09:33:10;97615.66;;;3.42;94.00
4814;BME280;15375;48.540;9.268;2023-12-07T09:35:35;97643.84;;;4.04;91.74
4814;BME280;15375;48.540;9.268;2023-12-07T09:38:01;97611.00;;;3.98;89.71
4814;BME280;15375;48.540;9.268;2023-12-07T09:40:26;97615.34;;;4.39;85.01
4814;BME280;15375;48.540;9.268;2023-12-07T09:42:53;97669.63;;;5.01;84.63
4814;BME280;15375;48.540;9.268;2023-12-07T09:45:19;97676.03;;;5.30;81.13
4814;BME280;15375;48.540;9.268;2023-12-07T09:47:53;97691.41;;;5.66;81.44
4814;BME280;15375;48.540;9.268;2023-12-07T09:50:23;97665.44;;;5.61;78.44
4814;BME280;15375;48.540;9.268;2023-12-07T09:52:53;97674.19;;;5.41;75.44
4814;BME280;15375;48.540;9.268;2023-12-07T09:55:19;97681.28;;;5.56;76.63
4814;BME280;15375;48.540;9.268;2023-12-07T09:57:51;97658.94;;;5.69;79.46
4814;BME280;15375;48.540;9.268;2023-12-07T10:00:19;97639.19;;;5.11;74.91
4814;BME280;15375;48.540;9.268;2023-12-07T10:02:46;97627.09;;;5.45;80.26
4814;BME280;15375;48.540;9.268;2023-12-07T10:05:13;97673.94;;;6.18;81.06
4814;BME280;15375;48.540;9.268;2023-12-07T10:07:48;97643.63;;;5.95;72.74
4814;BME280;15375;48.540;9.268;2023-12-07T10:10:17;97664.78;;;6.54;74.69
4814;BME280;15375;48.540;9.268;2023-12-07T10:12:48;97657.09;;;6.70;74.99
4814;BME280;15375;48.540;9.268;2023-12-07T10:15:17;97650.16;;;6.97;70.70
4814;BME280;15375;48.540;9.268;2023-12-07T10:17:50;97642.34;;;6.57;70.33
4814;BME280;15375;48.540;9.268;2023-12-07T10:20:17;97566.47;;;6.54;68.28
4814;BME280;15375;48.540;9.268;2023-12-07T10:22:44;97569.59;;;6.94;65.41
4814;BME280;15375;48.540;9.268;2023-12-07T10:25:10;97556.81;;;6.74;65.91
4814;BME280;15375;48.540;9.268;2023-12-07T10:27:36;97578.47;;;6.70;68.29
4814;BME280;15375;48.540;9.268;2023-12-07T10:30:09;97541.31;;;6.81;64.38
4814;BME280;15375;48.540;9.268;2023-12-07T10:32:36;97607.56;;;7.30;63.80
4814;BME280;15375;48.540;9.268;2023-12-07T10:35:03;97624.59;;;6.81;68.39
4814;BME280;15375;48.540;9.268;2023-12-07T10:37:29;97593.53;;;6.43;72.41
4814;BME280;15375;48.540;9.268;2023-12-07T10:39:54;97597.44;;;6.56;72.96
4814;BME280;15375;48.540;9.268;2023-12-07T10:42:24;97572.66;;;6.54;73.58
4814;BME280;15375;48.540;9.268;2023-12-07T10:44:50;97615.66;;;6.87;74.71
4814;BME280;15375;48.540;9.268;2023-12-07T10:47:18;97611.81;;;6.92;73.62
4814;BME280;15375;48.540;9.268;2023-12-07T10:49:46;97612.19;;;6.80;73.77
4814;BME280;15375;48.540;9.268;2023-12-07T10:52:13;97620.72;;;7.21;75.78
4814;BME280;15375;48.540;9.268;2023-12-07T10:54:50;97613.00;;;6.94;74.77
4814;BME280;15375;48.540;9.268;2023-12-07T10:57:17;97599.81;;;7.14;72.90
4814;BME280;15375;48.540;9.268;2023-12-07T10:59:45;97569.97;;;6.75;70.88
4814;BME280;15375;48.540;9.268;2023-12-07T11:02:12;97538.19;;;6.48;75.51
4814;BME280;15375;48.540;9.268;2023-12-07T11:04:43;97542.09;;;6.64;75.67
4814;BME280;15375;48.540;9.268;2023-12-07T11:07:20;97542.47;;;7.01;75.50
4814;BME280;15375;48.540;9.268;2023-12-07T11:09:58;97437.56;;;6.28;73.30
4814;BME280;15375;48.540;9.268;2023-12-07T11:12:35;97459.22;;;6.60;73.42
4814;BME280;15375;48.540;9.268;2023-12-07T11:15:04;97535.72;;;7.73;71.13
4814;BME280;15375;48.540;9.268;2023-12-07T11:17:47;97531.56;;;7.44;71.67
4814;BME280;15375;48.540;9.268;2023-12-07T11:20:21;97411.13;;;7.02;70.28
4814;BME280;15375;48.540;9.268;2023-12-07T11:22:47;97536.53;;;7.63;70.51
4814;BME280;15375;48.540;9.268;2023-12-07T11:25:14;97481.50;;;7.59;68.88
4814;BME280;15375;48.540;9.268;2023-12-07T11:27:40;97551.91;;;8.01;65.89
4814;BME280;15375;48.540;9.268;2023-12-07T11:30:07;97550.00;;;7.95;69.09
4814;BME280;15375;48.540;9.268;2023-12-07T11:32:32;97541.78;;;8.12;67.14
4814;BME280;15375;48.540;9.268;2023-12-07T11:35:11;97516.16;;;8.13;65.33
4814;BME280;15375;48.540;9.268;2023-12-07T11:38:17;97534.72;;;8.32;64.87
4814;BME280;15375;48.540;9.268;2023-12-07T11:40:44;97533.28;;;8.72;64.83
4814;BME280;15375;48.540;9.268;2023-12-07T11:46:06;97523.19;;;8.69;64.81
4814;BME280;15375;48.540;9.268;2023-12-07T11:48:32;97482.13;;;8.57;63.70
4814;BME280;15375;48.540;9.268;2023-12-07T11:51:03;97493.34;;;8.66;63.55
4814;BME280;15375;48.540;9.268;2023-12-07T11:53:30;97482.16;;;9.01;62.66
4814;BME280;15375;48.540;9.268;2023-12-07T11:55:57;97484.25;;;8.83;58.89
4814;BME280;15375;48.540;9.268;2023-12-07T11:58:27;97472.78;;;9.02;58.12
4814;BME280;15375;48.540;9.268;2023-12-07T12:00:53;97485.03;;;8.80;58.02
4814;BME280;15375;48.540;9.268;2023-12-07T12:03:37;97456.28;;;8.79;58.40
4814;BME280;15375;48.540;9.268;2023-12-07T12:06:04;97480.34;;;8.84;58.00
4814;BME280;15375;48.540;9.268;2023-12-07T12:08:30;97431.84;;;7.58;57.10
4814;BME280;15375;48.540;9.268;2023-12-07T12:10:56;97469.16;;;7.44;58.56
4814;BME280;15375;48.540;9.268;2023-12-07T12:13:35;97462.19;;;7.36;53.88
4814;BME280;15375;48.540;9.268;2023-12-07T12:16:00;97450.28;;;6.87;54.57
4814;BME280;15375;48.540;9.268;2023-12-07T12:18:27;97445.69;;;6.74;57.94
4814;BME280;15375;48.540;9.268;2023-12-07T12:20:53;97446.84;;;6.55;55.21
4814;BME280;15375;48.540;9.268;2023-12-07T12:23:19;97449.94;;;6.64;56.08
4814;BME280;15375;48.540;9.268;2023-12-07T12:25:45;97410.84;;;6.48;52.72
4814;BME280;15375;48.540;9.268;2023-12-07T12:28:10;97404.69;;;6.19;52.90
4814;BME280;15375;48.540;9.268;2023-12-07T12:30:39;97410.84;;;6.51;52.53
4814;BME280;15375;48.540;9.268;2023-12-07T12:33:04;97409.31;;;6.43;51.72
4814;BME280;15375;48.540;9.268;2023-12-07T12:35:30;97409.31;;;6.43;52.28
4814;BME280;15375;48.540;9.268;2023-12-07T12:37:55;97415.06;;;6.80;51.88
4814;BME280;15375;48.540;9.268;2023-12-07T12:40:22;97395.31;;;6.87;51.98
4814;BME280;15375;48.540;9.268;2023-12-07T12:42:50;97400.78;;;6.59;51.94
4814;BME280;15375;48.540;9.268;2023-12-07T12:45:16;97410.09;;;6.33;51.26
4814;BME280;15375;48.540;9.268;2023-12-07T12:47:44;97407.75;;;6.14;51.71
4814;BME280;15375;48.540;9.268;2023-12-07T12:50:11;97398.47;;;6.25;51.83
4814;BME280;15375;48.540;9.268;2023-12-07T12:52:37;97404.66;;;6.12;51.27
4814;BME280;15375;48.540;9.268;2023-12-07T12:55:13;97378.34;;;6.02;51.03
4814;BME280;15375;48.540;9.268;2023-12-07T12:57:39;97382.97;;;6.12;51.03
4814;BME280;15375;48.540;9.268;2023-12-07T13:00:05;97384.94;;;6.32;51.07
4814;BME280;15375;48.540;9.268;2023-12-07T13:02:33;97384.88;;;5.76;50.67
4814;BME280;15375;48.540;9.268;2023-12-07T13:05:01;97346.56;;;5.53;51.05
4814;BME280;15375;48.540;9.268;2023-12-07T13:07:27;97308.66;;;5.49;51.81
4814;BME280;15375;48.540;9.268;2023-12-07T13:09:53;97321.84;;;5.58;50.13